createdAt,value
2023-02-23T00:00:02.007Z,1017.3
2023-02-23T00:01:01.911Z,1017.3
2023-02-23T00:02:01.775Z,1017.3
2023-02-23T00:03:02.132Z,1017.3
2023-02-23T00:04:01.860Z,1017.3
2023-02-23T00:05:01.855Z,1017.2
2023-02-23T00:06:01.794Z,1017.3
2023-02-23T00:07:01.697Z,1017.2
2023-02-23T00:08:02.617Z,1017.3
2023-02-23T00:09:02.628Z,1017.3
2023-02-23T00:10:02.607Z,1017.3
2023-02-23T00:11:02.476Z,1017.3
2023-02-23T00:12:02.407Z,1017.3
2023-02-23T00:13:02.427Z,1017.2
2023-02-23T00:14:02.318Z,1017.2
2023-02-23T00:15:02.274Z,1017.2
2023-02-23T00:16:02.154Z,1017.3
2023-02-23T00:17:01.808Z,1017.2
2023-02-23T00:18:01.767Z,1017.2
2023-02-23T00:19:01.749Z,1017.3
2023-02-23T00:20:02.675Z,1017.3
2023-02-23T00:21:02.687Z,1017.2
2023-02-23T00:22:02.596Z,1017.2
2023-02-23T00:23:02.516Z,1017.2
2023-02-23T00:24:02.449Z,1017.3
2023-02-23T00:25:03.765Z,1017.2
2023-02-23T00:26:02.478Z,1017.2
2023-02-23T00:27:02.408Z,1017.2
2023-02-23T00:28:02.335Z,1017.2
2023-02-23T00:29:02.268Z,1017.2
2023-02-23T00:30:02.185Z,1017.2
2023-02-23T00:31:02.342Z,1017.2
2023-02-23T00:32:02.421Z,1017.2
2023-02-23T00:33:02.217Z,1017.1
2023-02-23T00:34:02.185Z,1017.2
2023-02-23T00:35:02.112Z,1017.2
2023-02-23T00:36:02.052Z,1017.2
2023-02-23T00:37:02.065Z,1017.2
2023-02-23T00:38:02.006Z,1017.2
2023-02-23T00:39:01.888Z,1017.2
2023-02-23T00:40:01.823Z,1017.1
2023-02-23T00:41:01.696Z,1017.2
2023-02-23T00:42:02.861Z,1017.2
2023-02-23T00:43:01.694Z,1017.2
2023-02-23T00:44:02.673Z,1017.2
2023-02-23T00:45:02.639Z,1017.2
2023-02-23T00:46:02.642Z,1017.1
2023-02-23T00:47:02.661Z,1017.2
2023-02-23T00:48:02.582Z,1017.2
2023-02-23T00:49:02.557Z,1017.2
2023-02-23T00:50:02.512Z,1017.2
2023-02-23T00:51:02.358Z,1017.2
2023-02-23T00:52:02.340Z,1017.2
2023-02-23T00:53:02.269Z,1017.2
2023-02-23T00:54:02.139Z,1017.2
2023-02-23T00:55:02.065Z,1017.2
2023-02-23T00:56:01.957Z,1017.3
2023-02-23T00:57:01.895Z,1017.2
2023-02-23T00:58:01.800Z,1017.2
2023-02-23T00:59:01.743Z,1017.2
2023-02-23T01:00:01.690Z,1017.2
2023-02-23T01:01:02.775Z,1017.2
2023-02-23T01:02:02.611Z,1017.2
2023-02-23T01:03:02.407Z,1017.2
2023-02-23T01:04:02.343Z,1017.2
2023-02-23T01:05:02.333Z,1017.2
2023-02-23T01:06:02.269Z,1017.2
2023-02-23T01:07:02.224Z,1017.1
2023-02-23T01:08:02.155Z,1017.1
2023-02-23T01:09:02.062Z,1017.2
2023-02-23T01:10:02.013Z,1017.2
2023-02-23T01:11:01.879Z,1017.2
2023-02-23T01:12:01.886Z,1017.1
2023-02-23T01:13:01.739Z,1017.2
2023-02-23T01:14:02.694Z,1017.2
2023-02-23T01:15:02.586Z,1017.2
2023-02-23T01:16:02.713Z,1017.2
2023-02-23T01:17:02.421Z,1017.2
2023-02-23T01:18:02.330Z,1017.2
2023-02-23T01:19:02.257Z,1017.2
2023-02-23T01:20:02.159Z,1017.1
2023-02-23T01:21:02.134Z,1017.1
2023-02-23T01:22:02.080Z,1017.1
2023-02-23T01:23:02.008Z,1017.1
2023-02-23T01:24:01.947Z,1017.1
2023-02-23T01:25:01.899Z,1017.1
2023-02-23T01:26:01.780Z,1017.1
2023-02-23T01:27:01.698Z,1017.1
2023-02-23T01:28:02.640Z,1017.1
2023-02-23T01:29:02.622Z,1017.1
2023-02-23T01:30:02.559Z,1017
2023-02-23T01:31:02.750Z,1017.1
2023-02-23T01:32:05.645Z,1017.1
2023-02-23T01:33:02.355Z,1017
2023-02-23T01:34:02.357Z,1017
2023-02-23T01:35:02.248Z,1017
2023-02-23T01:36:02.141Z,1017.1
2023-02-23T01:37:02.045Z,1017.1
2023-02-23T01:38:02.050Z,1017
2023-02-23T01:39:01.960Z,1017
2023-02-23T01:40:01.923Z,1017
2023-02-23T01:41:01.866Z,1017
2023-02-23T01:42:01.785Z,1017
2023-02-23T01:43:01.657Z,1017
2023-02-23T01:44:02.607Z,1017
2023-02-23T01:45:02.621Z,1017
2023-02-23T01:46:02.652Z,1017
2023-02-23T01:47:02.373Z,1016.9
2023-02-23T01:48:02.328Z,1016.9
2023-02-23T01:49:02.291Z,1016.9
2023-02-23T01:50:02.225Z,1016.9
2023-02-23T01:51:02.056Z,1016.8
2023-02-23T01:52:01.966Z,1016.9
2023-02-23T01:53:01.937Z,1016.9
2023-02-23T01:54:01.849Z,1016.9
2023-02-23T01:55:01.763Z,1016.8
2023-02-23T01:56:01.719Z,1016.8
2023-02-23T01:57:02.682Z,1016.8
2023-02-23T01:58:02.618Z,1016.8
2023-02-23T01:59:02.543Z,1016.8
2023-02-23T02:00:02.507Z,1016.8
2023-02-23T02:01:02.419Z,1016.7
2023-02-23T02:02:02.412Z,1016.7
2023-02-23T02:03:02.422Z,1016.7
2023-02-23T02:04:02.263Z,1016.7
2023-02-23T02:05:02.427Z,1016.7
2023-02-23T02:06:02.174Z,1016.7
2023-02-23T02:07:02.094Z,1016.6
2023-02-23T02:08:01.986Z,1016.7
2023-02-23T02:09:01.917Z,1016.6
2023-02-23T02:10:01.903Z,1016.7
2023-02-23T02:11:01.747Z,1016.6
2023-02-23T02:12:01.717Z,1016.6
2023-02-23T02:13:02.786Z,1016.6
2023-02-23T02:14:02.628Z,1016.6
2023-02-23T02:15:02.560Z,1016.6
2023-02-23T02:16:02.565Z,1016.6
2023-02-23T02:17:02.162Z,1016.6
2023-02-23T02:18:02.103Z,1016.7
2023-02-23T02:19:02.081Z,1016.6
2023-02-23T02:20:01.907Z,1016.6
2023-02-23T02:21:01.812Z,1016.6
2023-02-23T02:22:01.764Z,1016.6
2023-02-23T02:23:01.738Z,1016.6
2023-02-23T02:24:01.763Z,1016.6
2023-02-23T02:25:02.843Z,1016.5
2023-02-23T02:26:02.613Z,1016.6
2023-02-23T02:27:02.607Z,1016.6
2023-02-23T02:28:02.474Z,1016.5
2023-02-23T02:29:02.437Z,1016.6
2023-02-23T02:30:02.435Z,1016.6
2023-02-23T02:31:02.716Z,1016.6
2023-02-23T02:32:02.692Z,1016.6
2023-02-23T02:33:02.463Z,1016.6
2023-02-23T02:34:02.369Z,1016.6
2023-02-23T02:35:02.304Z,1016.6
2023-02-23T02:36:02.191Z,1016.6
2023-02-23T02:37:02.130Z,1016.6
2023-02-23T02:38:02.161Z,1016.6
2023-02-23T02:39:02.037Z,1016.5
2023-02-23T02:40:01.961Z,1016.6
2023-02-23T02:41:01.900Z,1016.5
2023-02-23T02:42:01.817Z,1016.6
2023-02-23T02:43:01.732Z,1016.6
2023-02-23T02:44:02.661Z,1016.6
2023-02-23T02:45:02.807Z,1016.5
2023-02-23T02:46:02.715Z,1016.5
2023-02-23T02:47:02.650Z,1016.5
2023-02-23T02:48:02.529Z,1016.5
2023-02-23T02:49:02.492Z,1016.5
2023-02-23T02:50:02.484Z,1016.5
2023-02-23T02:51:02.393Z,1016.5
2023-02-23T02:52:02.317Z,1016.5
2023-02-23T02:53:02.232Z,1016.5
2023-02-23T02:54:02.232Z,1016.5
2023-02-23T02:55:02.136Z,1016.5
2023-02-23T02:56:02.017Z,1016.4
2023-02-23T02:57:01.924Z,1016.5
2023-02-23T02:58:01.885Z,1016.5
2023-02-23T02:59:01.816Z,1016.5
2023-02-23T03:00:01.702Z,1016.5
2023-02-23T03:01:02.691Z,1016.4
2023-02-23T03:02:02.407Z,1016.4
2023-02-23T03:03:02.374Z,1016.4
2023-02-23T03:04:02.301Z,1016.5
2023-02-23T03:05:02.418Z,1016.4
2023-02-23T03:06:02.183Z,1016.4
2023-02-23T03:07:02.096Z,1016.4
2023-02-23T03:08:02.053Z,1016.4
2023-02-23T03:09:01.989Z,1016.4
2023-02-23T03:10:01.960Z,1016.4
2023-02-23T03:11:01.805Z,1016.4
2023-02-23T03:12:01.712Z,1016.4
2023-02-23T03:13:01.669Z,1016.4
2023-02-23T03:14:02.665Z,1016.4
2023-02-23T03:15:02.639Z,1016.4
2023-02-23T03:16:02.712Z,1016.4
2023-02-23T03:17:02.456Z,1016.4
2023-02-23T03:18:02.438Z,1016.4
2023-02-23T03:19:02.360Z,1016.4
2023-02-23T03:20:02.241Z,1016.4
2023-02-23T03:21:02.177Z,1016.4
2023-02-23T03:22:02.089Z,1016.4
2023-02-23T03:23:02.036Z,1016.4
2023-02-23T03:24:03.493Z,1016.4
2023-02-23T03:25:02.194Z,1016.4
2023-02-23T03:26:02.175Z,1016.5
2023-02-23T03:27:02.126Z,1016.4
2023-02-23T03:28:02.026Z,1016.4
2023-02-23T03:29:01.938Z,1016.4
2023-02-23T03:30:02.053Z,1016.4
2023-02-23T03:31:02.086Z,1016.4
2023-02-23T03:32:03.054Z,1016.3
2023-02-23T03:33:01.771Z,1016.3
2023-02-23T03:34:01.749Z,1016.4
2023-02-23T03:35:02.694Z,1016.4
2023-02-23T03:36:02.696Z,1016.4
2023-02-23T03:37:02.540Z,1016.4
2023-02-23T03:38:02.520Z,1016.4
2023-02-23T03:39:02.408Z,1016.4
2023-02-23T03:40:02.422Z,1016.4
2023-02-23T03:41:02.289Z,1016.4
2023-02-23T03:42:02.290Z,1016.4
2023-02-23T03:43:02.195Z,1016.4
2023-02-23T03:44:02.100Z,1016.4
2023-02-23T03:45:02.030Z,1016.4
2023-02-23T03:46:02.295Z,1016.4
2023-02-23T03:47:01.806Z,1016.4
2023-02-23T03:48:01.688Z,1016.4
2023-02-23T03:49:02.623Z,1016.4
2023-02-23T03:50:02.638Z,1016.5
2023-02-23T03:51:02.586Z,1016.4
2023-02-23T03:52:02.484Z,1016.4
2023-02-23T03:53:02.414Z,1016.5
2023-02-23T03:54:02.388Z,1016.4
2023-02-23T03:55:02.328Z,1016.4
2023-02-23T03:56:02.257Z,1016.4
2023-02-23T03:57:02.156Z,1016.5
2023-02-23T03:58:02.101Z,1016.5
2023-02-23T03:59:01.980Z,1016.5
2023-02-23T04:00:01.884Z,1016.4
2023-02-23T04:01:01.765Z,1016.5
2023-02-23T04:02:02.481Z,1016.4
2023-02-23T04:03:02.279Z,1016.4
2023-02-23T04:04:02.198Z,1016.5
2023-02-23T04:05:02.148Z,1016.5
2023-02-23T04:06:02.135Z,1016.4
2023-02-23T04:07:02.053Z,1016.5
2023-02-23T04:08:01.934Z,1016.5
2023-02-23T04:09:01.883Z,1016.5
2023-02-23T04:10:01.832Z,1016.4
2023-02-23T04:11:01.763Z,1016.4
2023-02-23T04:12:01.666Z,1016.4
2023-02-23T04:13:02.590Z,1016.5
2023-02-23T04:14:02.585Z,1016.5
2023-02-23T04:15:02.542Z,1016.5
2023-02-23T04:16:02.480Z,1016.4
2023-02-23T04:17:02.287Z,1016.4
2023-02-23T04:18:02.265Z,1016.4
2023-02-23T04:19:02.133Z,1016.4
2023-02-23T04:20:02.030Z,1016.5
2023-02-23T04:21:02.206Z,1016.4
2023-02-23T04:22:01.993Z,1016.4
2023-02-23T04:23:01.906Z,1016.5
2023-02-23T04:24:01.834Z,1016.4
2023-02-23T04:25:01.748Z,1016.4
2023-02-23T04:26:01.695Z,1016.4
2023-02-23T04:27:02.652Z,1016.4
2023-02-23T04:28:02.580Z,1016.4
2023-02-23T04:29:02.536Z,1016.4
2023-02-23T04:30:02.482Z,1016.3
2023-02-23T04:31:02.569Z,1016.3
2023-02-23T04:32:02.804Z,1016.3
2023-02-23T04:33:02.526Z,1016.3
2023-02-23T04:34:02.490Z,1016.4
2023-02-23T04:35:02.474Z,1016.3
2023-02-23T04:36:02.391Z,1016.3
2023-02-23T04:37:02.330Z,1016.3
2023-02-23T04:38:02.214Z,1016.3
2023-02-23T04:39:02.178Z,1016.3
2023-02-23T04:40:01.983Z,1016.4
2023-02-23T04:41:01.994Z,1016.3
2023-02-23T04:42:01.891Z,1016.3
2023-02-23T04:43:01.819Z,1016.3
2023-02-23T04:44:01.743Z,1016.3
2023-02-23T04:45:01.675Z,1016.3
2023-02-23T04:46:02.855Z,1016.3
2023-02-23T04:47:01.768Z,1016.3
2023-02-23T04:48:01.747Z,1016.3
2023-02-23T04:49:02.628Z,1016.3
2023-02-23T04:50:02.636Z,1016.3
2023-02-23T04:51:02.641Z,1016.3
2023-02-23T04:52:02.498Z,1016.2
2023-02-23T04:53:02.500Z,1016.3
2023-02-23T04:54:02.333Z,1016.2
2023-02-23T04:55:02.340Z,1016.2
2023-02-23T04:56:02.235Z,1016.3
2023-02-23T04:57:02.220Z,1016.3
2023-02-23T04:58:02.246Z,1016.2
2023-02-23T04:59:02.119Z,1016.3
2023-02-23T05:00:02.144Z,1016.2
2023-02-23T05:01:02.070Z,1016.3
2023-02-23T05:02:02.128Z,1016.2
2023-02-23T05:03:02.057Z,1016.2
2023-02-23T05:04:01.920Z,1016.3
2023-02-23T05:05:01.976Z,1016.3
2023-02-23T05:06:01.772Z,1016.2
2023-02-23T05:07:01.758Z,1016.3
2023-02-23T05:08:02.640Z,1016.3
2023-02-23T05:09:02.571Z,1016.2
2023-02-23T05:10:02.585Z,1016.3
2023-02-23T05:11:02.521Z,1016.3
2023-02-23T05:12:02.444Z,1016.3
2023-02-23T05:13:02.376Z,1016.3
2023-02-23T05:14:02.341Z,1016.2
2023-02-23T05:15:02.235Z,1016.3
2023-02-23T05:16:02.257Z,1016.3
2023-02-23T05:17:02.033Z,1016.3
2023-02-23T05:18:02.022Z,1016.3
2023-02-23T05:19:01.989Z,1016.3
2023-02-23T05:20:01.916Z,1016.3
2023-02-23T05:21:01.761Z,1016.3
2023-02-23T05:22:01.733Z,1016.3
2023-02-23T05:23:02.684Z,1016.3
2023-02-23T05:24:02.594Z,1016.2
2023-02-23T05:25:02.559Z,1016.2
2023-02-23T05:26:02.501Z,1016.3
2023-02-23T05:27:02.480Z,1016.3
2023-02-23T05:28:02.329Z,1016.3
2023-02-23T05:29:02.310Z,1016.3
2023-02-23T05:30:02.249Z,1016.2
2023-02-23T05:31:02.543Z,1016.3
2023-02-23T05:32:02.819Z,1016.3
2023-02-23T05:33:02.614Z,1016.3
2023-02-23T05:34:02.562Z,1016.3
2023-02-23T05:35:02.603Z,1016.3
2023-02-23T05:36:02.438Z,1016.2
2023-02-23T05:37:02.359Z,1016.2
2023-02-23T05:38:02.321Z,1016.3
2023-02-23T05:39:02.255Z,1016.3
2023-02-23T05:40:02.281Z,1016.4
2023-02-23T05:41:02.092Z,1016.3
2023-02-23T05:42:02.051Z,1016.3
2023-02-23T05:43:02.048Z,1016.3
2023-02-23T05:44:01.839Z,1016.4
2023-02-23T05:45:01.759Z,1016.3
2023-02-23T05:46:01.843Z,1016.3
2023-02-23T05:47:02.718Z,1016.3
2023-02-23T05:48:02.616Z,1016.3
2023-02-23T05:49:02.507Z,1016.3
2023-02-23T05:50:02.530Z,1016.3
2023-02-23T05:51:02.503Z,1016.3
2023-02-23T05:52:02.380Z,1016.3
2023-02-23T05:53:02.372Z,1016.4
2023-02-23T05:54:02.350Z,1016.3
2023-02-23T05:55:02.291Z,1016.3
2023-02-23T05:56:02.216Z,1016.3
2023-02-23T05:57:02.355Z,1016.3
2023-02-23T05:58:02.128Z,1016.3
2023-02-23T05:59:02.110Z,1016.3
2023-02-23T06:00:02.010Z,1016.3
2023-02-23T06:01:01.883Z,1016.3
2023-02-23T06:02:01.717Z,1016.3
2023-02-23T06:03:02.769Z,1016.4
2023-02-23T06:04:06.475Z,1016.4
2023-02-23T06:05:02.242Z,1016.3
2023-02-23T06:06:02.208Z,1016.4
2023-02-23T06:07:02.145Z,1016.3
2023-02-23T06:08:02.053Z,1016.4
2023-02-23T06:09:02.106Z,1016.4
2023-02-23T06:10:02.007Z,1016.4
2023-02-23T06:11:01.922Z,1016.4
2023-02-23T06:12:01.770Z,1016.4
2023-02-23T06:13:01.710Z,1016.4
2023-02-23T06:14:02.732Z,1016.3
2023-02-23T06:15:02.615Z,1016.4
2023-02-23T06:16:02.815Z,1016.5
2023-02-23T06:17:02.514Z,1016.5
2023-02-23T06:18:02.393Z,1016.4
2023-02-23T06:19:02.359Z,1016.5
2023-02-23T06:20:02.204Z,1016.4
2023-02-23T06:21:02.142Z,1016.5
2023-02-23T06:22:02.013Z,1016.5
2023-02-23T06:23:02.615Z,1016.4
2023-02-23T06:24:02.539Z,1016.5
2023-02-23T06:25:02.541Z,1016.5
2023-02-23T06:26:02.428Z,1016.6
2023-02-23T06:27:02.379Z,1016.4
2023-02-23T06:28:02.254Z,1016.5
2023-02-23T06:29:02.196Z,1016.5
2023-02-23T06:30:02.188Z,1016.5
2023-02-23T06:31:02.506Z,1016.5
2023-02-23T06:32:02.975Z,1016.5
2023-02-23T06:33:01.751Z,1016.4
2023-02-23T06:34:02.709Z,1016.5
2023-02-23T06:35:02.634Z,1016.5
2023-02-23T06:36:02.595Z,1016.5
2023-02-23T06:37:02.480Z,1016.5
2023-02-23T06:38:02.447Z,1016.5
2023-02-23T06:39:02.427Z,1016.5
2023-02-23T06:40:02.416Z,1016.5
2023-02-23T06:41:01.747Z,1016.5
2023-02-23T06:42:01.742Z,1016.5
2023-02-23T06:43:02.720Z,1016.5
2023-02-23T06:44:02.574Z,1016.5
2023-02-23T06:45:02.561Z,1016.5
2023-02-23T06:46:02.516Z,1016.5
2023-02-23T06:47:02.312Z,1016.5
2023-02-23T06:48:02.213Z,1016.6
2023-02-23T06:49:02.130Z,1016.5
2023-02-23T06:50:02.633Z,1016.5
2023-02-23T06:51:02.376Z,1016.6
2023-02-23T06:52:02.263Z,1016.6
2023-02-23T06:53:02.304Z,1016.5
2023-02-23T06:54:02.231Z,1016.5
2023-02-23T06:55:02.169Z,1016.6
2023-02-23T06:56:02.085Z,1016.5
2023-02-23T06:57:02.031Z,1016.6
2023-02-23T06:58:02.036Z,1016.5
2023-02-23T06:59:01.937Z,1016.5
2023-02-23T07:00:01.862Z,1016.5
2023-02-23T07:01:01.723Z,1016.6
2023-02-23T07:02:02.641Z,1016.6
2023-02-23T07:03:02.610Z,1016.6
2023-02-23T07:04:03.084Z,1016.6
2023-02-23T07:05:01.848Z,1016.6
2023-02-23T07:06:01.782Z,1016.6
2023-02-23T07:07:01.818Z,1016.5
2023-02-23T07:08:02.697Z,1016.6
2023-02-23T07:09:02.627Z,1016.6
2023-02-23T07:10:02.743Z,1016.6
2023-02-23T07:11:02.568Z,1016.6
2023-02-23T07:12:02.523Z,1016.6
2023-02-23T07:13:02.415Z,1016.6
2023-02-23T07:14:02.456Z,1016.6
2023-02-23T07:15:02.519Z,1016.6
2023-02-23T07:16:02.387Z,1016.6
2023-02-23T07:17:02.249Z,1016.6
2023-02-23T07:18:02.300Z,1016.6
2023-02-23T07:19:02.197Z,1016.6
2023-02-23T07:20:02.080Z,1016.6
2023-02-23T07:21:01.966Z,1016.7
2023-02-23T07:22:01.863Z,1016.7
2023-02-23T07:23:01.824Z,1016.7
2023-02-23T07:24:02.782Z,1016.7
2023-02-23T07:25:02.609Z,1016.6
2023-02-23T07:26:02.689Z,1016.7
2023-02-23T07:27:02.594Z,1016.6
2023-02-23T07:28:02.639Z,1016.6
2023-02-23T07:29:02.463Z,1016.6
2023-02-23T07:30:02.574Z,1016.6
2023-02-23T07:31:02.642Z,1016.6
2023-02-23T07:32:02.764Z,1016.6
2023-02-23T07:33:02.669Z,1016.6
2023-02-23T07:34:02.569Z,1016.6
2023-02-23T07:35:02.680Z,1016.5
2023-02-23T07:36:02.507Z,1016.6
2023-02-23T07:37:02.558Z,1016.6
2023-02-23T07:38:02.453Z,1016.6
2023-02-23T07:39:02.833Z,1016.6
2023-02-23T07:40:02.558Z,1016.6
2023-02-23T07:41:02.642Z,1016.5
2023-02-23T07:42:02.474Z,1016.5
2023-02-23T07:43:02.563Z,1016.5
2023-02-23T07:44:02.464Z,1016.5
2023-02-23T07:45:02.442Z,1016.5
2023-02-23T07:46:02.606Z,1016.5
2023-02-23T07:47:02.651Z,1016.6
2023-02-23T07:48:02.658Z,1016.6
2023-02-23T07:49:02.487Z,1016.5
2023-02-23T07:50:02.564Z,1016.5
2023-02-23T07:51:02.507Z,1016.5
2023-02-23T07:52:02.301Z,1016.5
2023-02-23T07:53:02.358Z,1016.5
2023-02-23T07:54:02.349Z,1016.5
2023-02-23T07:55:02.129Z,1016.5
2023-02-23T07:56:02.107Z,1016.5
2023-02-23T07:57:01.915Z,1016.4
2023-02-23T07:58:02.381Z,1016.4
2023-02-23T07:59:02.232Z,1016.5
2023-02-23T08:00:02.115Z,1016.4
2023-02-23T08:01:02.334Z,1016.5
2023-02-23T08:02:01.930Z,1016.4
2023-02-23T08:03:01.938Z,1016.5
2023-02-23T08:04:01.964Z,1016.4
2023-02-23T08:05:01.801Z,1016.4
2023-02-23T08:06:02.756Z,1016.3
2023-02-23T08:07:02.661Z,1016.3
2023-02-23T08:08:02.639Z,1016.4
2023-02-23T08:09:02.494Z,1016.4
2023-02-23T08:10:02.593Z,1016.4
2023-02-23T08:11:02.414Z,1016.4
2023-02-23T08:12:02.466Z,1016.4
2023-02-23T08:13:02.605Z,1016.4
2023-02-23T08:14:02.430Z,1016.4
2023-02-23T08:15:02.358Z,1016.4
2023-02-23T08:16:02.403Z,1016.4
2023-02-23T08:17:02.425Z,1016.4
2023-02-23T08:18:02.378Z,1016.4
2023-02-23T08:19:02.111Z,1016.4
2023-02-23T08:20:02.210Z,1016.4
2023-02-23T08:21:01.932Z,1016.4
2023-02-23T08:22:01.996Z,1016.4
2023-02-23T08:23:01.793Z,1016.4
2023-02-23T08:24:01.800Z,1016.4
2023-02-23T08:25:02.739Z,1016.4
2023-02-23T08:26:02.637Z,1016.4
2023-02-23T08:27:02.608Z,1016.4
2023-02-23T08:28:05.171Z,1016.4
2023-02-23T08:29:01.978Z,1016.3
2023-02-23T08:30:02.100Z,1016.3
2023-02-23T08:31:02.226Z,1016.4
2023-02-23T08:32:02.709Z,1016.3
2023-02-23T08:33:02.631Z,1016.3
2023-02-23T08:34:02.548Z,1016.3
2023-02-23T08:35:02.596Z,1016.3
2023-02-23T08:36:02.385Z,1016.3
2023-02-23T08:37:02.674Z,1016.3
2023-02-23T08:38:02.707Z,1016.2
2023-02-23T08:39:02.532Z,1016.3
2023-02-23T08:40:02.524Z,1016.3
2023-02-23T08:41:02.436Z,1016.3
2023-02-23T08:42:04.559Z,1016.3
2023-02-23T08:43:02.328Z,1016.3
2023-02-23T08:44:02.142Z,1016.3
2023-02-23T08:45:02.146Z,1016.3
2023-02-23T08:46:02.154Z,1016.3
2023-02-23T08:47:01.805Z,1016.4
2023-02-23T08:48:01.705Z,1016.4
2023-02-23T08:49:02.633Z,1016.3
2023-02-23T08:50:02.669Z,1016.3
2023-02-23T08:51:02.602Z,1016.3
2023-02-23T08:52:02.473Z,1016.3
2023-02-23T08:53:02.562Z,1016.3
2023-02-23T08:54:02.546Z,1016.3
2023-02-23T08:55:02.493Z,1016.3
2023-02-23T08:56:02.378Z,1016.3
2023-02-23T08:57:02.403Z,1016.3
2023-02-23T08:58:02.455Z,1016.3
2023-02-23T08:59:02.313Z,1016.2
2023-02-23T09:00:02.302Z,1016.2
2023-02-23T09:01:02.501Z,1016.3
2023-02-23T09:02:02.011Z,1016.1
2023-02-23T09:03:01.895Z,1016.2
2023-02-23T09:04:01.769Z,1016.3
2023-02-23T09:05:01.828Z,1016.3
2023-02-23T09:06:02.640Z,1016.2
2023-02-23T09:07:02.679Z,1016.3
2023-02-23T09:08:02.605Z,1016.2
2023-02-23T09:09:02.571Z,1016.2
2023-02-23T09:10:02.558Z,1016.2
2023-02-23T09:11:02.519Z,1016.2
2023-02-23T09:12:02.487Z,1016.2
2023-02-23T09:13:02.431Z,1016.2
2023-02-23T09:14:02.415Z,1016.2
2023-02-23T09:15:02.311Z,1016.1
2023-02-23T09:16:02.317Z,1016.1
2023-02-23T09:17:02.135Z,1016.1
2023-02-23T09:18:02.086Z,1016.1
2023-02-23T09:19:01.982Z,1016.1
2023-02-23T09:20:01.890Z,1016.1
2023-02-23T09:21:01.768Z,1016.1
2023-02-23T09:22:01.754Z,1016.1
2023-02-23T09:23:02.717Z,1016.1
2023-02-23T09:24:02.606Z,1016.1
2023-02-23T09:25:02.540Z,1016
2023-02-23T09:26:02.494Z,1016.1
2023-02-23T09:27:02.429Z,1016.1
2023-02-23T09:28:02.354Z,1016.2
2023-02-23T09:29:02.287Z,1016.2
2023-02-23T09:30:02.300Z,1016.3
2023-02-23T09:31:02.505Z,1016.2
2023-02-23T09:32:02.759Z,1016.3
2023-02-23T09:33:02.513Z,1016.3
2023-02-23T09:34:02.487Z,1016.3
2023-02-23T09:35:02.431Z,1016.3
2023-02-23T09:36:02.325Z,1016.3
2023-02-23T09:37:02.371Z,1016.4
2023-02-23T09:38:02.213Z,1016.3
2023-02-23T09:39:02.107Z,1016.3
2023-02-23T09:40:02.039Z,1016.2
2023-02-23T09:41:01.942Z,1016.3
2023-02-23T09:42:01.873Z,1016.3
2023-02-23T09:43:01.828Z,1016.3
2023-02-23T09:44:01.719Z,1016.3
2023-02-23T09:45:01.830Z,1016.3
2023-02-23T09:46:02.706Z,1016.3
2023-02-23T09:47:02.644Z,1016.2
2023-02-23T09:48:02.606Z,1016.3
2023-02-23T09:49:02.551Z,1016.2
2023-02-23T09:50:02.550Z,1016.2
2023-02-23T09:51:02.471Z,1016.2
2023-02-23T09:52:02.385Z,1016.2
2023-02-23T09:53:04.565Z,1016.2
2023-02-23T09:54:02.464Z,1016.2
2023-02-23T09:55:02.477Z,1016.1
2023-02-23T09:56:02.436Z,1016.1
2023-02-23T09:57:02.377Z,1016.1
2023-02-23T09:58:02.561Z,1016.2
2023-02-23T09:59:02.347Z,1016.2
2023-02-23T10:00:02.277Z,1016.2
2023-02-23T10:01:02.197Z,1016.2
2023-02-23T10:02:02.026Z,1016.1
2023-02-23T10:03:02.019Z,1016.1
2023-02-23T10:04:01.848Z,1016.1
2023-02-23T10:05:01.982Z,1016.2
2023-02-23T10:06:01.731Z,1016.1
2023-02-23T10:07:02.746Z,1016.2
2023-02-23T10:08:02.656Z,1016.1
2023-02-23T10:09:02.570Z,1016.2
2023-02-23T10:10:02.653Z,1016.2
2023-02-23T10:11:02.503Z,1016.2
2023-02-23T10:12:02.398Z,1016.2
2023-02-23T10:13:02.379Z,1016.2
2023-02-23T10:14:02.365Z,1016.2
2023-02-23T10:15:02.349Z,1016.3
2023-02-23T10:16:02.449Z,1016.3
2023-02-23T10:17:02.372Z,1016.2
2023-02-23T10:18:03.713Z,1016.2
2023-02-23T10:19:02.439Z,1016.2
2023-02-23T10:20:02.483Z,1016.2
2023-02-23T10:21:02.324Z,1016.3
2023-02-23T10:22:02.288Z,1016.2
2023-02-23T10:23:02.206Z,1016.2
2023-02-23T10:24:02.139Z,1016.2
2023-02-23T10:25:02.048Z,1016.2
2023-02-23T10:26:02.010Z,1016.2
2023-02-23T10:27:01.966Z,1016.1
2023-02-23T10:28:01.874Z,1016.2
2023-02-23T10:29:01.887Z,1016.2
2023-02-23T10:30:01.762Z,1016.2
2023-02-23T10:31:02.912Z,1016.2
2023-02-23T10:32:02.459Z,1016.1
2023-02-23T10:33:02.293Z,1016.1
2023-02-23T10:34:02.159Z,1016.2
2023-02-23T10:35:02.116Z,1016.1
2023-02-23T10:36:14.296Z,1016.1
2023-02-23T10:37:02.189Z,1016.1
2023-02-23T10:38:01.872Z,1016.1
2023-02-23T10:39:01.811Z,1016
2023-02-23T10:40:01.679Z,1016
2023-02-23T10:41:02.666Z,1016.1
2023-02-23T10:42:02.658Z,1016
2023-02-23T10:43:02.597Z,1016
2023-02-23T10:44:17.561Z,1016
2023-02-23T10:45:02.270Z,1016
2023-02-23T10:46:02.216Z,1016
2023-02-23T10:47:02.318Z,1016
2023-02-23T10:48:02.285Z,1015.9
2023-02-23T10:49:02.211Z,1015.9
2023-02-23T10:50:02.232Z,1015.9
2023-02-23T10:51:02.150Z,1015.9
2023-02-23T10:52:02.034Z,1015.9
2023-02-23T10:53:01.886Z,1015.9
2023-02-23T10:54:08.586Z,1015.8
2023-02-23T10:55:02.328Z,1015.8
2023-02-23T10:56:02.303Z,1015.8
2023-02-23T10:57:02.159Z,1015.8
2023-02-23T10:58:02.281Z,1015.9
2023-02-23T10:59:02.073Z,1015.8
2023-02-23T11:00:02.068Z,1015.8
2023-02-23T11:01:01.961Z,1015.8
2023-02-23T11:02:03.543Z,1015.8
2023-02-23T11:03:02.285Z,1015.8
2023-02-23T11:04:06.774Z,1015.8
2023-02-23T11:05:02.658Z,1015.7
2023-02-23T11:06:02.606Z,1015.7
2023-02-23T11:07:02.460Z,1015.7
2023-02-23T11:08:02.403Z,1015.8
2023-02-23T11:09:03.568Z,1015.7
2023-02-23T11:10:02.299Z,1015.7
2023-02-23T11:11:02.260Z,1015.6
2023-02-23T11:12:02.070Z,1015.6
2023-02-23T11:13:02.189Z,1015.6
2023-02-23T11:14:02.022Z,1015.7
2023-02-23T11:15:01.973Z,1015.6
2023-02-23T11:16:02.015Z,1015.6
2023-02-23T11:17:02.676Z,1015.6
2023-02-23T11:18:02.612Z,1015.6
2023-02-23T11:19:02.692Z,1015.6
2023-02-23T11:20:02.817Z,1015.6
2023-02-23T11:21:02.533Z,1015.6
2023-02-23T11:22:02.508Z,1015.6
2023-02-23T11:23:15.212Z,1015.6
2023-02-23T11:24:01.941Z,1015.6
2023-02-23T11:25:01.760Z,1015.5
2023-02-23T11:26:01.729Z,1015.6
2023-02-23T11:27:02.695Z,1015.5
2023-02-23T11:28:02.685Z,1015.5
2023-02-23T11:29:02.602Z,1015.5
2023-02-23T11:30:02.553Z,1015.5
2023-02-23T11:31:02.948Z,1015.4
2023-02-23T11:32:10.763Z,1015.5
2023-02-23T11:33:02.535Z,1015.4
2023-02-23T11:34:02.555Z,1015.4
2023-02-23T11:35:02.477Z,1015.4
2023-02-23T11:36:02.442Z,1015.5
2023-02-23T11:37:02.445Z,1015.4
2023-02-23T11:38:05.741Z,1015.4
2023-02-23T11:39:02.474Z,1015.4
2023-02-23T11:40:02.396Z,1015.4
2023-02-23T11:41:02.326Z,1015.4
2023-02-23T11:42:02.291Z,1015.5
2023-02-23T11:43:02.311Z,1015.4
2023-02-23T11:44:06.621Z,1015.4
2023-02-23T11:45:02.386Z,1015.4
2023-02-23T11:46:02.594Z,1015.4
2023-02-23T11:47:02.620Z,1015.3
2023-02-23T11:48:02.566Z,1015.3
2023-02-23T11:49:02.379Z,1015.4
2023-02-23T11:50:02.346Z,1015.3
2023-02-23T11:51:02.398Z,1015.3
2023-02-23T11:52:02.299Z,1015.3
2023-02-23T11:53:02.189Z,1015.3
2023-02-23T11:54:05.686Z,1015.3
2023-02-23T11:55:02.717Z,1015.3
2023-02-23T11:56:02.554Z,1015.2
2023-02-23T11:57:02.565Z,1015.3
2023-02-23T11:58:02.449Z,1015.3
2023-02-23T11:59:02.402Z,1015.2
2023-02-23T12:00:02.414Z,1015.2
2023-02-23T12:01:02.301Z,1015.2
2023-02-23T12:02:02.278Z,1015.3
2023-02-23T12:03:02.341Z,1015.3
2023-02-23T12:04:02.177Z,1015.3
2023-02-23T12:05:02.326Z,1015.2
2023-02-23T12:06:02.023Z,1015.2
2023-02-23T12:07:01.925Z,1015.2
2023-02-23T12:08:01.986Z,1015.2
2023-02-23T12:09:01.753Z,1015.2
2023-02-23T12:10:01.689Z,1015.2
2023-02-23T12:11:02.649Z,1015.2
2023-02-23T12:12:02.603Z,1015.1
2023-02-23T12:13:02.475Z,1015.2
2023-02-23T12:14:02.500Z,1015.2
2023-02-23T12:15:02.473Z,1015.1
2023-02-23T12:16:02.658Z,1015.1
2023-02-23T12:17:05.550Z,1015.1
2023-02-23T12:18:02.235Z,1015.2
2023-02-23T12:19:02.368Z,1015.1
2023-02-23T12:20:02.238Z,1015.1
2023-02-23T12:21:02.157Z,1015.1
2023-02-23T12:22:02.111Z,1015.1
2023-02-23T12:23:02.073Z,1015.1
2023-02-23T12:24:02.060Z,1015.1
2023-02-23T12:25:01.906Z,1015
2023-02-23T12:26:01.806Z,1015
2023-02-23T12:27:01.789Z,1015
2023-02-23T12:28:19.691Z,1014.9
2023-02-23T12:29:02.454Z,1015
2023-02-23T12:30:02.411Z,1015